createdAt,value
2023-04-14T00:02:08.709Z,98313.22
2023-04-14T00:04:36.220Z,98312.97
2023-04-14T00:07:03.133Z,98318.00
2023-04-14T00:09:30.329Z,98314.31
2023-04-14T00:11:57.730Z,98309.56
2023-04-14T00:14:24.579Z,98305.78
2023-04-14T00:16:51.474Z,98304.84
2023-04-14T00:19:18.374Z,98294.72
2023-04-14T00:21:45.158Z,98289.81
2023-04-14T00:24:11.926Z,98289.72
2023-04-14T00:26:38.903Z,98286.88
2023-04-14T00:29:05.845Z,98287.84
2023-04-14T00:31:32.772Z,98291.75
2023-04-14T00:33:59.623Z,98293.13
2023-04-14T00:36:26.377Z,98296.69
2023-04-14T00:38:53.190Z,98291.75
2023-04-14T00:41:19.951Z,98301.34
2023-04-14T00:43:46.660Z,98298.19
2023-04-14T00:46:15.319Z,98296.66
2023-04-14T00:48:42.174Z,98299.44
2023-04-14T00:51:09.667Z,98302.38
2023-04-14T00:53:36.396Z,98307.19
2023-04-14T00:56:03.868Z,98305.34
2023-04-14T00:58:30.746Z,98310.47
2023-04-14T01:00:58.550Z,98313.22
2023-04-14T01:03:26.638Z,98316.88
2023-04-14T01:05:53.460Z,98304.50
2023-04-14T01:08:20.763Z,98319.69
2023-04-14T01:10:56.212Z,98324.84
2023-04-14T01:13:45.190Z,98326.66
2023-04-14T01:16:23.202Z,98327.19
2023-04-14T01:19:33.546Z,98335.72
2023-04-14T01:22:04.484Z,98332.31
2023-04-14T01:24:37.187Z,98333.84
2023-04-14T01:27:10.629Z,98324.34
2023-04-14T01:29:50.219Z,98337.13
2023-04-14T01:32:20.780Z,98334.28
2023-04-14T01:35:09.354Z,98334.59
2023-04-14T01:37:42.312Z,98342.09
2023-04-14T01:40:11.897Z,98341.38
2023-04-14T01:42:40.646Z,98341.16
2023-04-14T01:45:11.624Z,98329.44
2023-04-14T01:47:38.912Z,98333.56
2023-04-14T01:50:07.163Z,98330.00
2023-04-14T01:52:34.862Z,98325.47
2023-04-14T01:55:06.177Z,98331.31
2023-04-14T01:57:34.365Z,98331.88
2023-04-14T02:00:01.828Z,98335.44
2023-04-14T02:02:29.237Z,98331.31
2023-04-14T02:04:57.808Z,98330.94
2023-04-14T02:07:25.593Z,98329.09
2023-04-14T02:09:53.952Z,98339.00
2023-04-14T02:12:21.121Z,98330.00
2023-04-14T02:14:48.448Z,98330.22
2023-04-14T02:17:15.400Z,98327.75
2023-04-14T02:19:43.724Z,98327.50
2023-04-14T02:22:10.853Z,98337.34
2023-04-14T02:24:37.623Z,98337.47
2023-04-14T02:27:31.184Z,98336.03
2023-04-14T02:29:59.135Z,98327.84
2023-04-14T02:32:29.450Z,98331.13
2023-04-14T02:35:02.454Z,98328.66
2023-04-14T02:37:37.248Z,98337.81
2023-04-14T02:40:11.226Z,98343.00
2023-04-14T02:42:41.527Z,98343.97
2023-04-14T02:45:13.719Z,98345.34
2023-04-14T02:47:45.826Z,98350.09
2023-04-14T02:50:15.186Z,98341.38
2023-04-14T02:52:42.819Z,98344.25
2023-04-14T02:55:11.122Z,98346.28
2023-04-14T02:57:38.325Z,98343.47
2023-04-14T03:00:06.698Z,98339.00
2023-04-14T03:02:34.063Z,98336.41
2023-04-14T03:05:01.996Z,98331.75
2023-04-14T03:07:30.040Z,98326.19
2023-04-14T03:09:57.506Z,98326.78
2023-04-14T03:12:24.722Z,98333.34
2023-04-14T03:14:51.908Z,98328.81
2023-04-14T03:17:21.958Z,98328.34
2023-04-14T03:19:54.802Z,98333.63
2023-04-14T03:22:22.535Z,98332.94
2023-04-14T03:24:50.883Z,98330.50
2023-04-14T03:27:26.459Z,98326.16
2023-04-14T03:29:55.370Z,98326.94
2023-04-14T03:32:27.036Z,98327.44
2023-04-14T03:34:55.766Z,98327.06
2023-04-14T03:37:25.263Z,98326.09
2023-04-14T03:39:52.722Z,98318.50
2023-04-14T03:42:21.406Z,98316.25
2023-04-14T03:44:53.464Z,98320.28
2023-04-14T03:47:23.781Z,98319.59
2023-04-14T03:49:52.105Z,98316.75
2023-04-14T03:52:21.341Z,98307.94
2023-04-14T03:54:48.768Z,98307.09
2023-04-14T03:57:18.159Z,98312.19
2023-04-14T03:59:51.191Z,98315.63
2023-04-14T04:02:18.534Z,98320.31
2023-04-14T04:04:46.848Z,98326.22
2023-04-14T04:07:13.982Z,98326.94
2023-04-14T04:09:43.140Z,98336.63
2023-04-14T04:12:12.039Z,98332.94
2023-04-14T04:14:42.275Z,98343.00
2023-04-14T04:17:09.853Z,98342.78
2023-04-14T04:19:37.500Z,98351.22
2023-04-14T04:22:04.617Z,98336.00
2023-04-14T04:24:38.564Z,98347.09
2023-04-14T04:27:09.875Z,98344.72
2023-04-14T04:29:41.632Z,98340.13
2023-04-14T04:32:08.480Z,98344.38
2023-04-14T04:34:35.654Z,98345.72
2023-04-14T04:37:02.972Z,98342.84
2023-04-14T04:39:30.267Z,98349.69
2023-04-14T04:42:04.910Z,98347.81
2023-04-14T04:44:33.293Z,98342.78
2023-04-14T04:47:00.856Z,98343.75
2023-04-14T04:49:27.715Z,98345.50
2023-04-14T04:51:54.693Z,98349.66
2023-04-14T04:54:21.859Z,98346.84
2023-04-14T04:56:48.828Z,98348.94
2023-04-14T04:59:15.752Z,98346.59
2023-04-14T05:01:42.754Z,98350.50
2023-04-14T05:04:09.843Z,98349.38
2023-04-14T05:06:40.153Z,98352.75
2023-04-14T05:09:07.194Z,98349.06
2023-04-14T05:11:34.281Z,98350.38
2023-04-14T05:14:01.513Z,98354.63
2023-04-14T05:16:31.775Z,98352.63
2023-04-14T05:18:59.768Z,98361.13
2023-04-14T05:21:26.794Z,98358.75
2023-04-14T05:23:53.637Z,98364.34
2023-04-14T05:26:44.529Z,98372.38
2023-04-14T05:29:07.365Z,98374.03
2023-04-14T05:31:34.267Z,98373.53
2023-04-14T05:34:01.459Z,98378.63
2023-04-14T05:36:28.770Z,98383.78
2023-04-14T05:38:55.627Z,98376.66
2023-04-14T05:41:23.153Z,98385.09
2023-04-14T05:43:50.140Z,98371.75
2023-04-14T05:46:17.022Z,98381.88
2023-04-14T05:48:43.720Z,98374.38
2023-04-14T05:51:11.081Z,98386.94
2023-04-14T05:53:38.121Z,98377.47
2023-04-14T05:56:05.546Z,98377.75
2023-04-14T05:58:32.509Z,98372.41
2023-04-14T06:00:59.328Z,98369.78
2023-04-14T06:03:26.436Z,98374.06
2023-04-14T06:05:53.392Z,98362.44
2023-04-14T06:08:21.086Z,98374.25
2023-04-14T06:10:47.885Z,98363.94
2023-04-14T06:13:16.518Z,98368.22
2023-04-14T06:15:43.313Z,98371.31
2023-04-14T06:18:10.247Z,98362.75
2023-04-14T06:20:37.437Z,98367.56
2023-04-14T06:23:05.021Z,98363.69
2023-04-14T06:25:32.161Z,98362.81
2023-04-14T06:27:58.981Z,98368.41
2023-04-14T06:30:28.756Z,98364.97
2023-04-14T06:32:55.693Z,98373.19
2023-04-14T06:35:30.063Z,98370.44
2023-04-14T06:37:59.953Z,98363.81
2023-04-14T06:40:26.777Z,98361.13
2023-04-14T06:42:53.751Z,98359.28
2023-04-14T06:45:20.751Z,98360.25
2023-04-14T06:47:47.671Z,98363.03
2023-04-14T06:50:14.780Z,98368.59
2023-04-14T06:52:41.597Z,98367.81
2023-04-14T06:55:09.245Z,98372.25
2023-04-14T06:57:36.322Z,98383.28
2023-04-14T07:00:04.893Z,98379.16
2023-04-14T07:02:32.112Z,98384.13
2023-04-14T07:04:59.152Z,98381.38
2023-04-14T07:07:26.053Z,98383.38
2023-04-14T07:09:52.954Z,98378.94
2023-04-14T07:12:19.697Z,98368.81
2023-04-14T07:14:53.016Z,98376.75
2023-04-14T07:17:20.140Z,98366.63
2023-04-14T07:19:47.004Z,98380.75
2023-04-14T07:22:13.975Z,98377.06
2023-04-14T07:24:40.926Z,98373.34
2023-04-14T07:27:07.868Z,98373.63
2023-04-14T07:29:35.202Z,98366.94
2023-04-14T07:32:02.026Z,98366.69
2023-04-14T07:34:28.872Z,98363.53
2023-04-14T07:36:55.664Z,98358.59
2023-04-14T07:39:23.962Z,98364.78
2023-04-14T07:41:51.016Z,98349.69
2023-04-14T07:44:17.765Z,98350.78
2023-04-14T07:46:44.964Z,98353.78
2023-04-14T07:49:12.017Z,98348.31
2023-04-14T07:51:38.815Z,98357.09
2023-04-14T07:54:06.547Z,98348.84
2023-04-14T07:56:33.681Z,98344.72
2023-04-14T07:59:00.810Z,98340.34
2023-04-14T08:01:27.943Z,98339.22
2023-04-14T08:03:58.199Z,98342.25
2023-04-14T08:06:27.086Z,98338.13
2023-04-14T08:08:54.083Z,98343.88
2023-04-14T08:11:21.267Z,98345.38
2023-04-14T08:13:50.238Z,98351.44
2023-04-14T08:16:17.500Z,98361.91
2023-04-14T08:18:45.334Z,98355.41
2023-04-14T08:21:12.292Z,98358.59
2023-04-14T08:23:39.293Z,98359.66
2023-04-14T08:26:06.187Z,98364.03
2023-04-14T08:28:33.751Z,98360.34
2023-04-14T08:31:00.930Z,98352.47
2023-04-14T08:33:28.416Z,98347.91
2023-04-14T08:35:59.455Z,98346.44
2023-04-14T08:38:29.193Z,98354.09
2023-04-14T08:40:57.002Z,98346.13
2023-04-14T08:43:24.065Z,98345.84
2023-04-14T08:45:52.052Z,98346.91
2023-04-14T08:48:21.997Z,98344.03
2023-04-14T08:51:07.385Z,98341.81
2023-04-14T08:53:36.044Z,98339.59
2023-04-14T08:56:04.605Z,98337.06
2023-04-14T08:58:32.818Z,98343.41
2023-04-14T09:00:59.944Z,98333.38
2023-04-14T09:03:27.470Z,98336.78
2023-04-14T09:05:54.927Z,98331.94
2023-04-14T09:08:27.685Z,98334.03
2023-04-14T09:10:55.034Z,98328.97
2023-04-14T09:13:23.737Z,98335.47
2023-04-14T09:15:50.748Z,98328.44
2023-04-14T09:18:17.595Z,98329.09
2023-04-14T09:20:48.028Z,98320.50
2023-04-14T09:23:35.058Z,98327.59
2023-04-14T09:26:02.694Z,98318.75
2023-04-14T09:28:29.459Z,98317.25
2023-04-14T09:30:56.776Z,98309.13
2023-04-14T09:33:23.993Z,98326.94
2023-04-14T09:35:51.695Z,98318.00
2023-04-14T09:38:36.083Z,98323.97
2023-04-14T09:41:04.322Z,98320.72
2023-04-14T09:43:31.059Z,98315.00
2023-04-14T09:46:11.194Z,98302.75
2023-04-14T09:48:55.776Z,98305.88
2023-04-14T09:51:24.774Z,98303.44
2023-04-14T09:53:53.526Z,98298.31
2023-04-14T09:56:21.559Z,98294.09
2023-04-14T09:58:50.612Z,98296.03
2023-04-14T10:01:21.034Z,98286.34
2023-04-14T10:03:48.979Z,98298.16
2023-04-14T10:06:20.449Z,98299.28
2023-04-14T10:08:49.461Z,98299.97
2023-04-14T10:11:21.335Z,98298.03
2023-04-14T10:13:55.969Z,98292.22
2023-04-14T10:16:24.184Z,98289.41
2023-04-14T10:18:53.897Z,98291.03
2023-04-14T10:21:23.406Z,98288.28
2023-04-14T10:23:51.393Z,98281.38
2023-04-14T10:26:19.421Z,98287.44
2023-04-14T10:28:52.143Z,98279.50
2023-04-14T10:31:33.969Z,98278.72
2023-04-14T10:34:16.545Z,98282.63
2023-04-14T10:36:44.043Z,98276.19
2023-04-14T10:39:12.160Z,98283.81
2023-04-14T10:41:49.498Z,98287.47
2023-04-14T10:44:35.763Z,98291.03
2023-04-14T10:47:05.629Z,98286.78
2023-04-14T10:49:40.843Z,98283.13
2023-04-14T10:52:38.464Z,98276.28
2023-04-14T10:55:10.285Z,98272.72
2023-04-14T10:57:41.629Z,98269.88
2023-04-14T11:00:26.585Z,98260.00
2023-04-14T11:03:15.475Z,98270.31
2023-04-14T11:05:43.736Z,98262.81
2023-04-14T11:08:27.714Z,98262.53
2023-04-14T11:11:04.841Z,98265.56
2023-04-14T11:13:32.551Z,98260.81
2023-04-14T11:16:04.499Z,98266.81
2023-04-14T11:18:38.079Z,98265.09
2023-04-14T11:21:06.839Z,98266.56
2023-04-14T11:23:35.486Z,98266.81
2023-04-14T11:26:02.553Z,98254.97
2023-04-14T11:28:34.063Z,98254.09
2023-04-14T11:31:03.889Z,98257.91
2023-04-14T11:33:36.163Z,98251.09
2023-04-14T11:36:04.736Z,98243.38
2023-04-14T11:38:31.971Z,98243.13
2023-04-14T11:40:58.798Z,98231.84
2023-04-14T11:43:25.850Z,98233.16
2023-04-14T11:45:52.862Z,98228.88
2023-04-14T11:48:20.703Z,98226.47
2023-04-14T11:50:48.946Z,98227.63
2023-04-14T11:53:20.051Z,98220.38
2023-04-14T11:55:48.635Z,98224.06
2023-04-14T11:58:19.600Z,98216.72
2023-04-14T12:00:49.212Z,98227.56
2023-04-14T12:03:16.532Z,98216.44
2023-04-14T12:05:43.990Z,98217.72
2023-04-14T12:08:12.891Z,98221.19
2023-04-14T12:10:42.336Z,98218.88
2023-04-14T12:13:11.463Z,98221.28
2023-04-14T12:15:40.442Z,98213.69
2023-04-14T12:18:14.217Z,98216.22
2023-04-14T12:20:55.238Z,98213.22
2023-04-14T12:23:23.030Z,98213.41
2023-04-14T12:25:50.432Z,98210.22
2023-04-14T12:28:25.416Z,98202.97
2023-04-14T12:30:53.247Z,98202.66
2023-04-14T12:33:24.026Z,98207.41
2023-04-14T12:35:51.510Z,98205.06
2023-04-14T12:38:18.380Z,98201.28
2023-04-14T12:40:47.363Z,98200.75
2023-04-14T12:43:15.241Z,98197.31
2023-04-14T12:45:44.205Z,98199.84
2023-04-14T12:48:12.850Z,98186.41
2023-04-14T12:50:39.894Z,98195.22
2023-04-14T12:53:26.681Z,98193.34
2023-04-14T12:56:16.730Z,98191.44
2023-04-14T12:58:58.875Z,98186.47
2023-04-14T13:01:26.031Z,98185.44
2023-04-14T13:03:56.176Z,98180.13
2023-04-14T13:06:24.381Z,98181.41
2023-04-14T13:08:55.338Z,98179.84
2023-04-14T13:11:23.872Z,98176.81
2023-04-14T13:13:54.409Z,98165.34
2023-04-14T13:16:22.584Z,98165.09
2023-04-14T13:18:53.028Z,98163.19
2023-04-14T13:21:19.902Z,98152.44
2023-04-14T13:23:46.786Z,98157.09
2023-04-14T13:26:13.936Z,98156.38
2023-04-14T13:28:40.823Z,98147.19
2023-04-14T13:31:07.763Z,98149.63
2023-04-14T13:33:34.841Z,98156.13
2023-04-14T13:36:02.954Z,98139.00
2023-04-14T13:38:30.080Z,98132.56
2023-04-14T13:40:57.217Z,98132.91
2023-04-14T13:43:23.908Z,98130.44
2023-04-14T13:45:51.338Z,98126.44
2023-04-14T13:48:18.373Z,98133.75
2023-04-14T13:50:45.129Z,98131.28
2023-04-14T13:53:12.607Z,98125.72
2023-04-14T13:55:39.502Z,98130.44
2023-04-14T13:58:06.370Z,98133.34
2023-04-14T14:00:33.421Z,98122.81
2023-04-14T14:03:00.796Z,98120.25
2023-04-14T14:05:28.228Z,98125.25
2023-04-14T14:07:57.580Z,98123.72
2023-04-14T14:10:24.508Z,98119.72
2023-04-14T14:12:52.103Z,98120.25
2023-04-14T14:15:19.741Z,98120.16
2023-04-14T14:17:46.745Z,98126.72
2023-04-14T14:20:14.202Z,98121.97
2023-04-14T14:22:41.362Z,98121.16
2023-04-14T14:25:19.384Z,98116.72
2023-04-14T14:27:48.508Z,98115.88
2023-04-14T14:30:16.339Z,98111.72
2023-04-14T14:32:43.417Z,98108.06
2023-04-14T14:35:10.858Z,98102.50
2023-04-14T14:37:38.100Z,98115.59
2023-04-14T14:40:05.847Z,98106.88
2023-04-14T14:42:33.409Z,98113.78
2023-04-14T14:45:02.062Z,98115.31
2023-04-14T14:47:29.255Z,98112.66
2023-04-14T14:50:00.987Z,98110.84
2023-04-14T14:52:34.225Z,98105.50
2023-04-14T14:55:01.646Z,98104.16
2023-04-14T14:57:29.569Z,98103.78
2023-04-14T14:59:57.282Z,98109.06
2023-04-14T15:02:25.590Z,98105.69
2023-04-14T15:04:52.970Z,98114.31
2023-04-14T15:07:22.703Z,98103.78
2023-04-14T15:09:50.688Z,98095.75
2023-04-14T15:12:18.630Z,98098.69
2023-04-14T15:14:45.691Z,98101.59
2023-04-14T15:17:12.532Z,98100.03
2023-04-14T15:19:40.475Z,98093.13
2023-04-14T15:22:08.189Z,98103.34
2023-04-14T15:24:35.297Z,98098.06
2023-04-14T15:27:04.037Z,98096.78
2023-04-14T15:29:31.688Z,98099.69
2023-04-14T15:31:58.913Z,98094.88
2023-04-14T15:34:26.420Z,98096.78
2023-04-14T15:36:53.282Z,98090.78
2023-04-14T15:39:23.779Z,98104.44
2023-04-14T15:41:50.782Z,98101.72
2023-04-14T15:44:19.009Z,98089.97
2023-04-14T15:46:46.629Z,98094.25
2023-04-14T15:49:13.390Z,98092.94
2023-04-14T15:51:40.885Z,98091.56
2023-04-14T15:54:08.462Z,98095.28
2023-04-14T15:56:36.054Z,98095.09
2023-04-14T15:59:03.154Z,98091.13
2023-04-14T16:01:29.952Z,98086.81
2023-04-14T16:03:57.417Z,98088.84
2023-04-14T16:06:25.377Z,98087.50
2023-04-14T16:08:56.338Z,98087.88
2023-04-14T16:11:24.498Z,98097.25
2023-04-14T16:13:52.934Z,98091.78
2023-04-14T16:16:22.540Z,98100.44
2023-04-14T16:18:49.689Z,98094.03
2023-04-14T16:21:16.834Z,98093.13
2023-04-14T16:23:43.898Z,98100.34
2023-04-14T16:26:11.403Z,98097.84
2023-04-14T16:28:38.413Z,98105.00
2023-04-14T16:31:06.089Z,98104.63
2023-04-14T16:33:33.371Z,98106.09
2023-04-14T16:36:04.203Z,98107.16
2023-04-14T16:38:31.122Z,98115.97
2023-04-14T16:40:59.064Z,98120.50
2023-04-14T16:43:27.885Z,98118.28
2023-04-14T16:46:02.307Z,98119.91
2023-04-14T16:48:29.715Z,98118.59
2023-04-14T16:50:56.741Z,98120.94
2023-04-14T16:53:25.380Z,98126.59
2023-04-14T16:55:52.973Z,98130.56
2023-04-14T16:58:19.943Z,98126.34
2023-04-14T17:00:47.244Z,98136.88
2023-04-14T17:03:14.258Z,98134.31
2023-04-14T17:05:41.345Z,98134.69
2023-04-14T17:08:09.023Z,98129.53
2023-04-14T17:10:36.001Z,98135.44
2023-04-14T17:13:03.133Z,98131.50
2023-04-14T17:15:33.861Z,98136.38
2023-04-14T17:18:02.167Z,98132.81
2023-04-14T17:20:29.765Z,98132.09
2023-04-14T17:23:01.346Z,98135.72
2023-04-14T17:25:28.825Z,98141.16
2023-04-14T17:27:55.712Z,98143.31
2023-04-14T17:30:22.498Z,98141.97
2023-04-14T17:32:49.889Z,98151.06
2023-04-14T17:35:17.265Z,98148.56
2023-04-14T17:37:44.459Z,98151.16
2023-04-14T17:40:13.968Z,98154.25
2023-04-14T17:42:42.531Z,98155.53
2023-04-14T17:45:10.473Z,98151.69
2023-04-14T17:47:40.152Z,98161.75
2023-04-14T17:50:10.774Z,98163.56
2023-04-14T17:52:40.436Z,98160.72
2023-04-14T17:55:09.302Z,98158.63
2023-04-14T17:57:36.553Z,98151.75
2023-04-14T18:00:04.529Z,98157.00
2023-04-14T18:02:36.895Z,98157.84
2023-04-14T18:05:04.508Z,98150.28
2023-04-14T18:07:32.322Z,98154.91
2023-04-14T18:09:59.038Z,98155.91
2023-04-14T18:12:26.333Z,98156.44
2023-04-14T18:14:54.623Z,98161.03
2023-04-14T18:17:22.951Z,98168.56
2023-04-14T18:19:49.875Z,98169.22
2023-04-14T18:22:16.724Z,98170.38
2023-04-14T18:29:43.660Z,98178.09
2023-04-14T18:32:10.623Z,98176.78
2023-04-14T18:34:37.808Z,98174.81
2023-04-14T18:37:04.648Z,98184.34
2023-04-14T18:39:35.326Z,98179.94
2023-04-14T18:42:02.186Z,98181.84
2023-04-14T18:44:29.461Z,98193.81
2023-04-14T18:46:56.609Z,98183.31
2023-04-14T18:49:23.913Z,98183.94
2023-04-14T18:51:51.175Z,98189.66
2023-04-14T18:54:18.059Z,98188.19
2023-04-14T18:56:45.351Z,98191.00
2023-04-14T18:59:13.109Z,98185.91
2023-04-14T19:01:39.969Z,98190.00
2023-04-14T19:04:07.950Z,98191.53
2023-04-14T19:06:35.128Z,98199.75
2023-04-14T19:09:02.368Z,98195.66
2023-04-14T19:11:29.852Z,98199.06
2023-04-14T19:13:56.693Z,98200.75
2023-04-14T19:16:23.448Z,98196.66
2023-04-14T19:18:50.344Z,98197.78
2023-04-14T19:21:17.540Z,98199.47
2023-04-14T19:23:46.033Z,98198.88
2023-04-14T19:26:13.882Z,98198.97
2023-04-14T19:28:42.655Z,98197.09
2023-04-14T19:31:10.379Z,98194.41
2023-04-14T19:33:37.893Z,98198.66
2023-04-14T19:36:14.612Z,98200.75
2023-04-14T19:38:41.785Z,98199.31
2023-04-14T19:41:12.164Z,98199.47
2023-04-14T19:43:39.161Z,98194.69
2023-04-14T19:46:07.527Z,98187.84
2023-04-14T19:48:34.665Z,98193.59
2023-04-14T19:51:04.941Z,98190.44
2023-04-14T19:53:31.981Z,98200.69
2023-04-14T19:55:58.927Z,98199.97
2023-04-14T19:58:27.385Z,98194.97
2023-04-14T20:00:56.433Z,98195.56
2023-04-14T20:03:24.492Z,98192.50
2023-04-14T20:05:52.830Z,98197.44
2023-04-14T20:08:20.914Z,98192.44
2023-04-14T20:10:51.604Z,98195.19
2023-04-14T20:13:22.794Z,98185.78
2023-04-14T20:15:50.003Z,98184.13
2023-04-14T20:18:18.136Z,98179.50
2023-04-14T20:20:46.076Z,98187.56
2023-04-14T20:23:12.832Z,98177.63
2023-04-14T20:25:39.895Z,98179.47
2023-04-14T20:28:07.743Z,98179.25
2023-04-14T20:30:34.575Z,98181.63
2023-04-14T20:33:04.601Z,98180.34
2023-04-14T20:35:35.067Z,98179.75
2023-04-14T20:38:01.842Z,98182.38
2023-04-14T20:40:29.409Z,98189.25
2023-04-14T20:42:56.178Z,98188.75
2023-04-14T20:45:23.076Z,98184.63
2023-04-14T20:47:50.399Z,98184.38
2023-04-14T20:50:18.143Z,98183.66
2023-04-14T20:52:45.257Z,98192.09
2023-04-14T20:55:13.649Z,98189.28
2023-04-14T20:57:43.560Z,98194.44
2023-04-14T21:00:12.258Z,98191.97
2023-04-14T21:02:39.292Z,98188.19
2023-04-14T21:05:07.236Z,98192.28
2023-04-14T21:07:35.775Z,98197.31
2023-04-14T21:10:07.336Z,98195.41
2023-04-14T21:12:35.908Z,98190.75
2023-04-14T21:15:47.387Z,98202.69
2023-04-14T21:17:52.920Z,98203.63
2023-04-14T21:20:19.687Z,98200.22
2023-04-14T21:22:46.882Z,98198.50
2023-04-14T21:25:13.930Z,98198.50
2023-04-14T21:27:43.423Z,98196.28
2023-04-14T21:30:11.029Z,98195.19
2023-04-14T21:32:39.705Z,98192.59
2023-04-14T21:35:07.732Z,98208.41
2023-04-14T21:37:34.631Z,98204.97
2023-04-14T21:40:04.579Z,98207.47
2023-04-14T21:42:31.780Z,98203.75
2023-04-14T21:44:58.603Z,98203.19
2023-04-14T21:47:25.383Z,98208.56
2023-04-14T21:49:52.112Z,98196.91
2023-04-14T21:52:19.356Z,98204.59
2023-04-14T21:54:47.775Z,98190.75
2023-04-14T21:57:14.490Z,98192.09
2023-04-14T21:59:41.601Z,98186.59
2023-04-14T22:02:08.418Z,98188.66
2023-04-14T22:04:36.816Z,98181.94
2023-04-14T22:07:03.959Z,98190.88
2023-04-14T22:09:30.755Z,98180.03
2023-04-14T22:11:57.921Z,98176.03
2023-04-14T22:14:24.757Z,98176.75
2023-04-14T22:16:51.542Z,98176.88
2023-04-14T22:19:20.014Z,98166.16
2023-04-14T22:21:47.658Z,98178.00
2023-04-14T22:24:14.745Z,98178.91
2023-04-14T22:26:42.391Z,98180.44
2023-04-14T22:29:11.449Z,98189.09
2023-04-14T22:31:38.734Z,98197.72
2023-04-14T22:34:05.942Z,98189.34
2023-04-14T22:36:32.680Z,98185.09
2023-04-14T22:38:59.633Z,98182.38
2023-04-14T22:41:26.527Z,98174.53
2023-04-14T22:43:53.258Z,98177.28
2023-04-14T22:46:20.136Z,98178.22
2023-04-14T22:48:47.454Z,98176.84
2023-04-14T22:51:14.278Z,98183.72
2023-04-14T22:53:41.515Z,98185.06
2023-04-14T22:56:08.832Z,98175.47
2023-04-14T22:58:39.510Z,98183.91
2023-04-14T23:01:19.025Z,98180.38
2023-04-14T23:03:51.338Z,98187.47
2023-04-14T23:06:22.215Z,98183.53
2023-04-14T23:08:50.052Z,98185.56
2023-04-14T23:11:20.250Z,98181.16
2023-04-14T23:13:48.114Z,98184.97
2023-04-14T23:16:16.901Z,98188.69
2023-04-14T23:18:43.993Z,98170.97
2023-04-14T23:21:11.167Z,98180.06
2023-04-14T23:23:38.162Z,98184.19
2023-04-14T23:26:04.911Z,98179.53
2023-04-14T23:28:31.839Z,98181.53
2023-04-14T23:30:58.868Z,98174.53
2023-04-14T23:33:25.783Z,98174.84
2023-04-14T23:35:52.875Z,98169.19
2023-04-14T23:38:19.746Z,98165.91
2023-04-14T23:40:46.919Z,98161.28
2023-04-14T23:43:13.583Z,98157.16
2023-04-14T23:45:40.318Z,98167.59
2023-04-14T23:48:07.722Z,98165.38
2023-04-14T23:51:00.120Z,98163.22
2023-04-14T23:53:21.536Z,98166.34
2023-04-14T23:55:48.677Z,98164.94
2023-04-14T23:58:26.095Z,98159.06
